Time;durP1;ratioP1;P1;durP2;ratioP2;P2;SDS_P1;SDS_P2;PMS_P1;PMS_P2;Temp;Humidity;BMP_temperature;BMP_pressure;BME280_temperature;BME280_humidity;BME280_pressure;Samples;Min_cycle;Max_cycle;Signal;HPM_P1;HPM_P2
2022/11/28 00:01:19;;;;;;;3.22;2.72;;;;;;;20.45;41.48;101098.63;5030476;28;20088;-72
2022/11/28 00:03:45;;;;;;;5.25;2.90;;;;;;;20.39;41.57;101088.72;5026233;28;20403;-72
2022/11/28 00:06:10;;;;;;;3.78;2.80;;;;;;;20.36;41.65;101083.81;5024623;28;20075;-73
2022/11/28 00:08:36;;;;;;;3.60;2.97;;;;;;;20.34;41.74;101071.75;5030755;28;20040;-72
2022/11/28 00:11:04;;;;;;;3.35;2.67;;;;;;;20.38;41.65;101073.88;5023602;28;20033;-72
2022/11/28 00:13:29;;;;;;;5.20;2.60;;;;;;;20.41;41.62;101078.81;5024367;28;20041;-72
2022/11/28 00:15:59;;;;;;;5.95;3.17;;;;;;;20.33;41.46;101076.22;5027385;28;20048;-72
2022/11/28 00:18:25;;;;;;;;;;;;;;;20.37;41.64;101076.69;5026872;28;20057;-72
2022/11/28 00:20:53;;;;;;;4.47;2.80;;;;;;;20.32;41.68;101068.47;5028167;28;19921;-72
2022/11/28 00:23:18;;;;;;;3.90;3.03;;;;;;;20.31;41.62;101065.00;5029030;28;20132;-73
2022/11/28 00:25:44;;;;;;;4.65;3.03;;;;;;;20.30;41.58;101073.13;5027082;28;20408;-71
2022/11/28 00:28:09;;;;;;;3.97;2.85;;;;;;;20.28;41.67;101061.88;5027702;28;20041;-72
2022/11/28 00:30:36;;;;;;;5.13;2.95;;;;;;;20.35;41.39;101060.19;5029691;28;20063;-71
2022/11/28 00:33:02;;;;;;;4.47;2.70;;;;;;;20.32;41.38;101050.78;5029836;28;20617;-72
2022/11/28 00:35:27;;;;;;;4.28;3.05;;;;;;;20.31;41.71;101056.25;5027912;28;20044;-72
2022/11/28 00:37:53;;;;;;;3.17;2.70;;;;;;;20.25;41.71;101054.28;5025879;28;20045;-72
2022/11/28 00:40:18;;;;;;;4.15;2.60;;;;;;;20.27;41.64;101050.47;5027377;28;20040;-72
2022/11/28 00:42:44;;;;;;;5.07;3.25;;;;;;;20.31;41.60;101045.66;5025294;28;20575;-72
2022/11/28 00:45:09;;;;;;;3.95;2.60;;;;;;;20.23;41.65;101035.97;5022920;28;20058;-71
2022/11/28 00:47:35;;;;;;;3.92;2.90;;;;;;;20.26;41.79;101035.59;5032071;28;20060;-72
2022/11/28 00:50:00;;;;;;;3.88;2.83;;;;;;;20.21;41.78;101044.06;5028135;28;20034;-72
2022/11/28 00:52:26;;;;;;;3.28;2.70;;;;;;;20.17;41.58;101034.84;5024617;28;20333;-72
2022/11/28 00:54:51;;;;;;;6.07;3.17;;;;;;;20.20;41.76;101029.22;5027247;28;20037;-71
2022/11/28 00:57:17;;;;;;;4.28;2.92;;;;;;;20.27;41.48;101031.97;5031378;28;20079;-72
2022/11/28 00:59:42;;;;;;;3.67;2.92;;;;;;;20.18;41.75;101020.63;5030754;28;20046;-72
2022/11/28 01:02:08;;;;;;;4.85;2.90;;;;;;;20.18;41.77;101014.53;5037188;28;20041;-72
2022/11/28 01:04:33;;;;;;;3.83;2.90;;;;;;;20.20;41.59;101004.59;5021997;28;20044;-72
2022/11/28 01:06:59;;;;;;;4.10;3.00;;;;;;;20.28;41.54;100998.41;5011485;28;20037;-73
2022/11/28 01:09:25;;;;;;;3.33;2.60;;;;;;;20.12;41.75;101002.84;5028157;28;20620;-72
2022/11/28 01:11:52;;;;;;;4.95;2.78;;;;;;;20.11;41.71;100990.63;5022425;28;20029;-72
2022/11/28 01:14:22;;;;;;;3.55;2.53;;;;;;;20.24;41.32;100992.66;5024263;28;20044;-72
2022/11/28 01:16:48;;;;;;;3.42;2.70;;;;;;;20.15;41.49;100989.25;5023550;28;20126;-72
2022/11/28 01:19:14;;;;;;;3.63;2.53;;;;;;;20.16;41.70;101003.31;5025216;28;21576;-72
2022/11/28 01:21:40;;;;;;;4.18;2.65;;;;;;;20.14;41.80;100998.19;5025324;28;20033;-73
2022/11/28 01:24:06;;;;;;;3.67;3.00;;;;;;;20.09;41.82;101003.16;5026943;28;20774;-72
2022/11/28 01:26:32;;;;;;;4.30;2.58;;;;;;;20.10;41.73;100993.41;5030510;28;20037;-72
2022/11/28 01:28:59;;;;;;;5.68;3.03;;;;;;;20.15;41.64;100983.97;5035293;28;20498;-72
2022/11/28 01:31:27;;;;;;;3.70;2.65;;;;;;;20.16;41.56;100980.34;5049815;28;20814;-72
2022/11/28 01:33:53;;;;;;;3.83;2.90;;;;;;;20.12;41.65;100981.69;5038327;28;20029;-72
2022/11/28 01:36:21;;;;;;;4.20;2.78;;;;;;;20.13;41.71;100985.16;5031357;28;20041;-72
2022/11/28 01:38:50;;;;;;;4.38;2.70;;;;;;;20.09;41.65;100970.63;5024819;28;20040;-72
2022/11/28 01:41:19;;;;;;;3.88;2.83;;;;;;;20.12;41.62;100976.41;5028711;28;20050;-72
2022/11/28 01:44:14;;;;;;;3.80;2.58;;;;;;;20.13;41.77;100961.38;5029333;28;20047;-72
2022/11/28 01:46:40;;;;;;;3.33;2.80;;;;;;;20.10;41.58;100966.97;5036686;28;20049;-72
2022/11/28 01:49:12;;;;;;;3.15;2.80;;;;;;;20.12;41.55;100957.06;5032145;28;20044;-72
2022/11/28 01:51:41;;;;;;;4.25;2.72;;;;;;;20.12;41.66;100951.78;5027305;28;20472;-72
2022/11/28 01:54:07;;;;;;;3.50;2.63;;;;;;;20.11;41.54;100940.41;5044858;28;20036;-72
2022/11/28 01:56:43;;;;;;;3.50;2.85;;;;;;;20.07;41.75;100946.19;5028312;28;20537;-72
2022/11/28 01:59:13;;;;;;;3.13;2.60;;;;;;;20.03;41.67;100932.53;5028333;28;20659;-72
2022/11/28 02:01:38;;;;;;;4.28;3.00;;;;;;;20.14;41.60;100937.38;5038348;28;20124;-72
2022/11/28 02:04:04;;;;;;;3.63;2.55;;;;;;;20.12;41.67;100935.94;5034850;28;20575;-72
2022/11/28 02:06:31;;;;;;;3.47;2.60;;;;;;;20.14;41.54;100933.94;5027669;28;20083;-72
2022/11/28 02:08:56;;;;;;;3.72;2.75;;;;;;;20.09;41.71;100936.25;5028686;28;20045;-72
2022/11/28 02:11:58;;;;;;;4.75;2.70;;;;;;;20.14;41.49;100937.38;5032303;28;20206;-72
2022/11/28 02:15:02;;;;;;;3.15;2.63;;;;;;;19.96;41.85;100920.22;5027587;28;20580;-72
2022/11/28 02:17:36;;;;;;;3.50;2.72;;;;;;;20.06;41.69;100928.69;5033292;28;21554;-72
2022/11/28 02:20:43;;;;;;;4.65;2.90;;;;;;;19.97;41.87;100927.94;5033618;28;20526;-72
2022/11/28 02:23:13;;;;;;;3.40;2.50;;;;;;;20.02;41.76;100930.88;5011947;28;20049;-72
2022/11/28 02:25:38;;;;;;;4.03;2.90;;;;;;;20.08;41.63;100927.50;5022156;28;20148;-71
2022/11/28 02:28:28;;;;;;;3.70;2.80;;;;;;;19.99;41.79;100927.78;5028854;28;20037;-72
2022/11/28 02:31:06;;;;;;;4.78;2.70;;;;;;;20.02;41.77;100909.72;5032632;28;20508;-72
2022/11/28 02:33:45;;;;;;;4.07;2.30;;;;;;;20.04;41.60;100907.72;5033183;28;20102;-72
2022/11/28 02:36:21;;;;;;;3.15;2.40;;;;;;;19.96;41.77;100909.63;5030657;28;20119;-72
2022/11/28 02:38:55;;;;;;;4.22;2.72;;;;;;;20.05;41.66;100919.13;5026696;28;21239;-72
2022/11/28 02:41:51;;;;;;;4.00;2.67;;;;;;;19.99;41.73;100925.13;5027828;28;20128;-72
2022/11/28 02:44:21;;;;;;;3.83;2.90;;;;;;;20.09;41.52;100915.09;5028660;28;20041;-72
2022/11/28 02:47:28;;;;;;;3.70;2.58;;;;;;;19.97;41.76;100922.66;5024798;28;20049;-72
2022/11/28 02:50:16;;;;;;;4.40;2.95;;;;;;;19.96;41.53;100915.75;5017229;28;20526;-72
2022/11/28 02:52:46;;;;;;;3.83;2.80;;;;;;;19.97;41.75;100916.56;5011659;28;20025;-72
2022/11/28 02:55:13;;;;;;;5.15;3.20;;;;;;;19.99;41.71;100918.03;5030254;28;20061;-72
2022/11/28 02:57:45;;;;;;;4.47;2.97;;;;;;;19.99;41.63;100910.09;5022137;28;20033;-73
2022/11/28 03:00:25;;;;;;;4.22;2.53;;;;;;;19.99;41.60;100917.19;5030846;28;20516;-72
2022/11/28 03:02:55;;;;;;;3.50;2.80;;;;;;;20.04;41.55;100917.47;5031755;28;20131;-71
2022/11/28 03:05:37;;;;;;;4.10;2.65;;;;;;;19.98;41.66;100913.72;5034350;28;20017;-72
2022/11/28 03:08:25;;;;;;;4.40;2.80;;;;;;;19.92;41.82;100909.16;5028185;28;20043;-71
2022/11/28 03:11:18;;;;;;;4.32;2.50;;;;;;;19.92;41.94;100898.56;5026559;28;20041;-72
2022/11/28 03:14:13;;;;;;;3.30;2.60;;;;;;;19.88;41.92;100892.81;5005217;28;20136;-72
2022/11/28 03:17:16;;;;;;;5.13;2.90;;;;;;;19.96;41.74;100889.31;5012316;28;20041;-72
2022/11/28 03:19:53;;;;;;;4.03;2.63;;;;;;;19.98;41.64;100886.50;5029947;28;20075;-72
2022/11/28 03:22:32;;;;;;;3.67;2.83;;;;;;;19.90;41.77;100890.81;5023755;28;20037;-72
2022/11/28 03:25:46;;;;;;;3.85;2.55;;;;;;;19.98;41.70;100887.31;5030488;28;20131;-72
2022/11/28 03:28:54;;;;;;;3.22;2.70;;;;;;;19.85;41.82;100874.69;5026383;28;20472;-70
2022/11/28 03:31:35;;;;;;;3.88;3.03;;;;;;;19.91;41.78;100883.72;5032721;28;20033;-72
2022/11/28 03:34:04;;;;;;;3.45;2.60;;;;;;;19.80;41.83;100881.53;5032634;28;20044;-72
2022/11/28 03:36:35;;;;;;;3.85;2.67;;;;;;;19.88;41.78;100878.78;5033015;28;20066;-72
2022/11/28 03:39:03;;;;;;;;;;;;;;;19.85;41.98;100881.78;5024309;28;20045;-72
2022/11/28 03:41:41;;;;;;;4.40;2.88;;;;;;;19.78;41.94;100871.13;5037323;28;20450;-72
2022/11/28 03:44:13;;;;;;;3.08;2.60;;;;;;;19.85;41.86;100869.41;5030284;28;20512;-72
2022/11/28 03:46:45;;;;;;;3.95;2.65;;;;;;;19.91;41.44;100865.22;5022853;28;20714;-72
2022/11/28 03:49:18;;;;;;;3.80;2.72;;;;;;;19.79;41.91;100856.91;5028877;28;20041;-72
2022/11/28 03:51:52;;;;;;;3.20;2.60;;;;;;;19.82;41.76;100869.78;5027201;28;20051;-72
2022/11/28 03:54:31;;;;;;;4.32;2.70;;;;;;;19.90;41.80;100868.84;5029095;28;20118;-74
2022/11/28 03:57:05;;;;;;;3.17;2.35;;;;;;;19.82;41.87;100876.88;5027867;28;20048;-72
2022/11/28 03:59:43;;;;;;;4.40;2.75;;;;;;;19.77;42.00;100871.31;5024216;28;20120;-72
2022/11/28 04:02:24;;;;;;;2.88;2.40;;;;;;;19.79;41.80;100871.94;5030639;28;20201;-72
2022/11/28 04:05:11;;;;;;;4.07;2.45;;;;;;;19.87;41.77;100872.69;5026680;28;20526;-72
2022/11/28 04:07:44;;;;;;;3.42;2.63;;;;;;;19.86;41.75;100864.94;5028288;28;20056;-71
2022/11/28 04:10:21;;;;;;;3.53;2.53;;;;;;;19.92;41.67;100875.59;5030434;28;20040;-72
2022/11/28 04:13:13;;;;;;;4.15;3.03;;;;;;;19.81;41.89;100864.66;5026728;28;20486;-72
2022/11/28 04:15:47;;;;;;;4.38;3.00;;;;;;;19.88;41.77;100870.88;5028868;28;20049;-72
2022/11/28 04:18:40;;;;;;;3.45;2.90;;;;;;;19.89;41.63;100870.69;5031647;28;20048;-72
2022/11/28 04:21:12;;;;;;;3.85;2.90;;;;;;;19.73;41.88;100857.59;5028608;28;20051;-72
2022/11/28 04:23:41;;;;;;;5.35;2.83;;;;;;;19.82;41.87;100861.03;5024775;28;20041;-72
2022/11/28 04:26:17;;;;;;;3.78;2.70;;;;;;;19.82;41.83;100861.03;5027067;28;20032;-72
2022/11/28 04:28:47;;;;;;;4.78;2.40;;;;;;;19.77;41.96;100861.56;5026039;28;20689;-71
2022/11/28 04:31:16;;;;;;;3.65;2.80;;;;;;;19.87;41.73;100866.59;5026943;28;20388;-72
2022/11/28 04:33:46;;;;;;;3.35;2.42;;;;;;;19.80;41.87;100863.03;5028236;28;20115;-73
2022/11/28 04:36:16;;;;;;;2.50;2.30;;;;;;;19.79;41.80;100864.84;5030856;28;20041;-72
2022/11/28 04:38:46;;;;;;;3.58;2.58;;;;;;;19.80;41.86;100860.38;5024813;28;20025;-72
2022/11/28 04:41:25;;;;;;;4.28;3.10;;;;;;;19.82;41.72;100859.19;5027315;28;20065;-72
2022/11/28 04:44:02;;;;;;;3.22;2.65;;;;;;;19.84;41.60;100853.72;5028060;28;20036;-72
2022/11/28 04:46:38;;;;;;;3.70;2.70;;;;;;;19.82;41.75;100853.91;5023249;28;20111;-71
2022/11/28 04:49:04;;;;;;;3.50;2.75;;;;;;;19.75;41.94;100857.44;5027899;28;20510;-72
2022/11/28 04:51:41;;;;;;;4.50;2.90;;;;;;;19.80;41.75;100860.38;5027550;28;20033;-71
2022/11/28 04:54:25;;;;;;;3.95;2.80;;;;;;;19.76;41.87;100854.63;5031846;28;20475;-72
2022/11/28 04:57:02;;;;;;;3.70;2.60;;;;;;;19.77;42.02;100858.91;5027996;28;20025;-72
2022/11/28 04:59:30;;;;;;;3.13;2.60;;;;;;;19.79;41.95;100854.28;5028266;28;20041;-72
2022/11/28 05:02:00;;;;;;;4.22;2.97;;;;;;;19.79;41.92;100851.63;5034995;28;20033;-71
2022/11/28 05:04:25;;;;;;;4.22;3.08;;;;;;;19.76;41.94;100851.19;5039742;28;20072;-71
2022/11/28 05:07:01;;;;;;;2.97;2.65;;;;;;;19.74;41.85;100853.16;5039577;28;20048;-72
2022/11/28 05:09:26;;;;;;;4.30;3.20;;;;;;;19.81;41.73;100849.63;5031676;28;20036;-72
2022/11/28 05:11:52;;;;;;;3.40;2.92;;;;;;;19.74;41.85;100856.59;5027657;28;20045;-72
2022/11/28 05:14:17;;;;;;;3.97;2.90;;;;;;;19.75;41.94;100862.72;5028376;28;20065;-72
2022/11/28 05:16:43;;;;;;;4.85;2.90;;;;;;;19.77;41.95;100873.94;5027642;28;20045;-71
2022/11/28 05:19:09;;;;;;;4.65;2.75;;;;;;;19.75;41.81;100863.56;5032458;28;20049;-72
2022/11/28 05:21:34;;;;;;;4.55;3.10;;;;;;;19.75;41.89;100862.72;5028066;28;20038;-72
2022/11/28 05:24:00;;;;;;;3.25;2.70;;;;;;;19.77;42.04;100860.75;5030711;28;20494;-72
2022/11/28 05:26:25;;;;;;;5.10;3.30;;;;;;;19.73;42.04;100865.53;5026493;28;20037;-72
2022/11/28 05:28:51;;;;;;;4.13;2.85;;;;;;;19.73;41.95;100870.00;5026913;28;20129;-72
2022/11/28 05:31:19;;;;;;;3.92;3.08;;;;;;;19.70;42.05;100867.72;5032955;28;20037;-71
2022/11/28 05:33:45;;;;;;;4.18;2.85;;;;;;;19.69;42.05;100861.63;5037123;28;20397;-72
2022/11/28 05:36:12;;;;;;;3.72;2.67;;;;;;;19.76;42.01;100861.75;5040579;28;20041;-72
2022/11/28 05:38:38;;;;;;;3.58;2.92;;;;;;;19.72;42.05;100868.34;5034935;28;20052;-71
2022/11/28 05:41:04;;;;;;;3.95;2.90;;;;;;;19.75;42.02;100860.06;5029210;28;20037;-71
2022/11/28 05:43:30;;;;;;;3.55;2.95;;;;;;;19.79;41.97;100874.59;5030251;28;20791;-72
2022/11/28 05:45:56;;;;;;;2.95;2.65;;;;;;;19.77;41.96;100872.13;5032003;28;20136;-72
2022/11/28 05:48:22;;;;;;;3.47;2.90;;;;;;;19.75;42.09;100871.50;5029651;28;20037;-72
2022/11/28 05:50:51;;;;;;;4.32;2.67;;;;;;;19.79;42.09;100864.84;5031163;28;20059;-72
2022/11/28 05:53:18;;;;;;;3.50;2.60;;;;;;;19.82;42.04;100863.66;5029186;28;20037;-72
2022/11/28 05:55:43;;;;;;;5.32;2.60;;;;;;;19.78;42.02;100870.31;5029181;28;20619;-72
2022/11/28 05:58:09;;;;;;;3.45;2.55;;;;;;;19.80;42.15;100879.69;5025693;28;20139;-72
2022/11/28 06:00:35;;;;;;;3.35;2.72;;;;;;;19.73;42.08;100868.19;5029930;28;20045;-72
2022/11/28 06:03:03;;;;;;;4.35;2.80;;;;;;;19.73;42.37;100880.56;5028315;28;20120;-71
2022/11/28 06:05:29;;;;;;;4.10;2.95;;;;;;;19.79;42.15;100880.69;5034679;28;20139;-71
2022/11/28 06:07:54;;;;;;;3.22;2.47;;;;;;;19.78;42.10;100881.69;5034947;28;20041;-72
2022/11/28 06:10:21;;;;;;;3.42;2.53;;;;;;;19.78;42.24;100881.69;5029363;28;20487;-71
2022/11/28 06:12:47;;;;;;;4.07;3.00;;;;;;;19.78;42.17;100886.97;5027531;28;20045;-72
2022/11/28 06:15:13;;;;;;;3.42;2.85;;;;;;;19.76;42.24;100878.41;5031742;28;20045;-72
2022/11/28 06:17:38;;;;;;;3.30;2.70;;;;;;;19.86;42.18;100883.44;5029730;28;20051;-72
2022/11/28 06:20:04;;;;;;;3.78;2.83;;;;;;;19.87;42.11;100875.31;5029865;28;20049;-71
2022/11/28 06:22:30;;;;;;;2.75;2.47;;;;;;;19.78;42.32;100879.06;5030221;28;20068;-72
2022/11/28 06:24:55;;;;;;;3.83;2.45;;;;;;;19.79;42.10;100880.69;5030809;28;20041;-72
2022/11/28 06:27:21;;;;;;;3.50;2.75;;;;;;;19.89;42.11;100885.72;5026376;28;20903;-71
2022/11/28 06:29:46;;;;;;;2.88;2.50;;;;;;;19.83;42.19;100889.91;5032639;28;20044;-71
2022/11/28 06:32:12;;;;;;;3.08;2.60;;;;;;;19.85;42.09;100887.09;5029551;28;20114;-71
2022/11/28 06:34:37;;;;;;;4.35;2.83;;;;;;;19.92;42.06;100902.03;5031349;28;20522;-71
2022/11/28 06:37:03;;;;;;;3.67;2.75;;;;;;;19.86;42.19;100891.38;5032092;28;20037;-71
2022/11/28 06:39:28;;;;;;;3.42;2.70;;;;;;;19.82;42.26;100901.47;5030639;28;20055;-71
2022/11/28 06:41:54;;;;;;;3.90;2.85;;;;;;;19.86;42.17;100897.47;5028954;28;20037;-72
2022/11/28 06:44:20;;;;;;;3.90;3.20;;;;;;;19.90;42.17;100897.94;5029878;28;20134;-71
2022/11/28 06:46:45;;;;;;;4.30;2.92;;;;;;;19.85;42.26;100906.41;5029390;28;20509;-72
2022/11/28 06:49:14;;;;;;;3.42;2.60;;;;;;;19.81;42.31;100907.75;5030553;28;20056;-72
2022/11/28 06:51:40;;;;;;;4.03;2.83;;;;;;;19.82;42.36;100905.94;5023180;28;20057;-72
2022/11/28 06:54:06;;;;;;;4.10;2.92;;;;;;;19.83;42.36;100908.41;5030709;28;20071;-72
2022/11/28 06:56:32;;;;;;;3.72;2.80;;;;;;;19.81;42.43;100909.59;5029612;28;20045;-72
2022/11/28 06:58:58;;;;;;;3.30;2.58;;;;;;;19.85;42.33;100906.41;5028618;28;20388;-72
2022/11/28 07:01:27;;;;;;;4.47;2.60;;;;;;;19.88;42.50;100911.31;5029888;28;20574;-72
2022/11/28 07:03:55;;;;;;;3.92;2.72;;;;;;;19.86;42.34;100910.69;5029581;28;20079;-72
2022/11/28 07:06:23;;;;;;;3.58;2.80;;;;;;;19.82;42.42;100919.16;5036491;28;20040;-71
2022/11/28 07:08:49;;;;;;;3.17;2.72;;;;;;;19.87;42.32;100919.44;5030904;28;20028;-72
2022/11/28 07:11:19;;;;;;;3.38;2.72;;;;;;;19.92;42.30;100922.34;5023967;28;20047;-72
2022/11/28 07:13:46;;;;;;;3.67;2.53;;;;;;;19.90;42.14;100925.19;5030889;28;20124;-71
2022/11/28 07:16:15;;;;;;;3.80;2.90;;;;;;;19.86;42.26;100921.25;5027231;28;20110;-71
2022/11/28 07:18:41;;;;;;;2.75;2.50;;;;;;;19.83;42.45;100926.91;5030862;28;20038;-72
2022/11/28 07:21:06;;;;;;;3.25;2.60;;;;;;;19.83;42.38;100918.97;5027370;28;20666;-71
2022/11/28 07:23:32;;;;;;;3.13;2.45;;;;;;;19.86;42.38;100929.19;5027941;28;21061;-71
2022/11/28 07:25:59;;;;;;;3.80;2.60;;;;;;;19.83;42.35;100934.81;5024195;28;20408;-71
2022/11/28 07:28:25;;;;;;;2.97;2.67;;;;;;;19.85;42.47;100938.13;5029982;28;20031;-69
2022/11/28 07:30:59;;;;;;;3.33;2.53;;;;;;;19.87;42.36;100937.94;5028251;28;20048;-71
2022/11/28 07:33:25;;;;;;;3.45;2.65;;;;;;;19.86;42.40;100933.66;5021571;28;20737;-71
2022/11/28 07:35:50;;;;;;;3.38;2.60;;;;;;;19.87;42.40;100941.41;5029555;28;20045;-71
2022/11/28 07:38:16;;;;;;;3.22;2.70;;;;;;;19.88;42.25;100939.56;5033869;28;20419;-70
2022/11/28 07:40:41;;;;;;;3.38;2.83;;;;;;;19.81;42.59;100939.47;5026968;28;20543;-71
2022/11/28 07:43:07;;;;;;;2.90;2.60;;;;;;;19.90;42.40;100938.41;5029744;28;20096;-71
2022/11/28 07:45:32;;;;;;;4.35;2.97;;;;;;;19.85;42.41;100935.47;5026037;28;20053;-71
2022/11/28 07:47:58;;;;;;;3.83;2.72;;;;;;;19.79;42.53;100936.19;5031601;28;20098;-73
2022/11/28 07:50:23;;;;;;;3.28;2.67;;;;;;;19.87;42.38;100933.47;5025003;28;20102;-71
2022/11/28 07:52:50;;;;;;;2.42;2.22;;;;;;;19.92;42.27;100936.41;5029462;28;20062;-70
2022/11/28 07:55:16;;;;;;;3.08;2.40;;;;;;;19.82;42.42;100937.66;5027276;28;20085;-72
2022/11/28 07:57:41;;;;;;;3.50;2.50;;;;;;;19.85;42.70;100930.19;5026972;28;20392;-71
2022/11/28 08:00:07;;;;;;;3.47;2.70;;;;;;;19.86;42.44;100933.66;5034302;28;20041;-70
2022/11/28 08:02:38;;;;;;;3.63;2.97;;;;;;;19.81;42.38;100938.66;5028606;28;20154;-71
2022/11/28 08:05:04;;;;;;;4.97;2.78;;;;;;;19.84;42.60;100941.75;5030710;28;20037;-71
2022/11/28 08:07:29;;;;;;;3.40;2.60;;;;;;;19.82;42.62;100941.13;5031198;28;20029;-73
2022/11/28 08:09:55;;;;;;;3.92;2.63;;;;;;;19.87;42.54;100940.56;5027144;28;20606;-70
2022/11/28 08:12:20;;;;;;;3.33;2.78;;;;;;;19.83;42.53;100948.03;5029615;28;20044;-73
2022/11/28 08:14:46;;;;;;;3.00;2.35;;;;;;;19.92;42.25;100946.16;5025870;28;20049;-69
2022/11/28 08:17:11;;;;;;;3.75;2.88;;;;;;;19.78;42.65;100942.47;5029065;28;20036;-74
2022/11/28 08:19:37;;;;;;;3.90;2.50;;;;;;;19.88;42.62;100945.69;5027838;28;20041;-72
2022/11/28 08:22:02;;;;;;;6.18;2.67;;;;;;;19.83;42.74;100942.75;5030313;28;20491;-72
2022/11/28 08:24:28;;;;;;;6.78;2.67;;;;;;;19.95;42.49;100943.16;5031344;28;20049;-73
2022/11/28 08:26:53;;;;;;;4.28;2.60;;;;;;;19.85;42.63;100930.19;5030870;28;20431;-72
2022/11/28 08:29:19;;;;;;;4.28;2.60;;;;;;;19.91;42.47;100944.50;5027306;28;20041;-72
2022/11/28 08:31:45;;;;;;;3.60;2.60;;;;;;;19.87;42.62;100946.69;5030053;28;20036;-72
2022/11/28 08:34:11;;;;;;;5.93;3.15;;;;;;;19.86;42.91;100946.88;5031263;28;20044;-73
2022/11/28 08:36:37;;;;;;;3.83;2.58;;;;;;;19.90;42.44;100961.34;5038336;28;20152;-73
2022/11/28 08:39:04;;;;;;;2.85;2.50;;;;;;;19.82;42.57;100958.78;5029116;28;20045;-72
2022/11/28 08:41:29;;;;;;;3.38;2.55;;;;;;;19.83;42.76;100961.25;5033487;28;20115;-72
2022/11/28 08:43:55;;;;;;;3.10;2.30;;;;;;;19.91;42.59;100952.44;5028472;28;20041;-72
2022/11/28 08:46:21;;;;;;;3.10;2.15;;;;;;;19.93;42.45;100950.47;5031924;28;20419;-72
2022/11/28 08:48:49;;;;;;;3.05;2.40;;;;;;;19.82;42.65;100954.31;5032159;28;20052;-72
2022/11/28 08:51:18;;;;;;;3.25;2.47;;;;;;;19.94;42.62;100954.75;5023222;28;20049;-72
2022/11/28 08:53:43;;;;;;;3.33;2.60;;;;;;;19.90;42.70;100953.44;5028089;28;20053;-72
2022/11/28 08:56:10;;;;;;;3.35;2.47;;;;;;;19.95;42.30;100951.09;5031759;28;20099;-70
2022/11/28 08:58:36;;;;;;;3.85;2.50;;;;;;;19.88;42.56;100952.78;5032414;28;20045;-73
2022/11/28 09:01:02;;;;;;;2.65;2.45;;;;;;;19.96;42.44;100957.22;5030972;28;20593;-72
2022/11/28 09:03:27;;;;;;;2.60;2.40;;;;;;;19.96;42.51;100958.03;5033491;28;21635;-73
2022/11/28 09:05:59;;;;;;;3.53;2.40;;;;;;;19.90;42.56;100969.28;5030605;28;20048;-72
2022/11/28 09:08:25;;;;;;;2.70;2.42;;;;;;;19.90;42.61;100964.00;5033003;28;20041;-72
2022/11/28 09:10:50;;;;;;;3.22;2.35;;;;;;;19.90;42.61;100977.22;5035579;28;20033;-73
2022/11/28 09:13:16;;;;;;;3.70;2.50;;;;;;;19.90;42.62;100972.75;5032718;28;20049;-72
2022/11/28 09:15:44;;;;;;;2.75;2.00;;;;;;;19.89;42.63;100967.66;5034063;28;20040;-72
2022/11/28 09:18:11;;;;;;;3.80;2.55;;;;;;;19.87;42.54;100961.72;5036460;28;20124;-73
2022/11/28 09:20:38;;;;;;;3.08;2.47;;;;;;;19.89;42.38;100973.75;5031164;28;20041;-73
2022/11/28 09:23:04;;;;;;;2.28;1.98;;;;;;;19.92;42.56;100980.50;5033906;28;20115;-72
2022/11/28 09:25:30;;;;;;;2.25;2.05;;;;;;;19.83;42.59;100979.75;5035939;28;20375;-72
2022/11/28 09:27:55;;;;;;;2.78;2.15;;;;;;;19.92;42.43;100985.78;5026110;28;20029;-72
2022/11/28 09:30:21;;;;;;;3.15;2.15;;;;;;;19.90;42.57;100993.06;5028660;28;20033;-72
2022/11/28 09:32:48;;;;;;;2.72;2.03;;;;;;;19.83;42.52;100982.41;5032135;28;20556;-73
2022/11/28 09:35:14;;;;;;;2.60;2.13;;;;;;;19.87;42.50;100973.13;5026001;28;20187;-73
2022/11/28 09:37:40;;;;;;;2.63;2.20;;;;;;;19.91;42.59;100984.16;5033979;28;20028;-71
2022/11/28 09:40:06;;;;;;;3.28;2.35;;;;;;;19.84;42.60;100989.31;5031442;28;20040;-72
2022/11/28 09:42:42;;;;;;;3.72;2.30;;;;;;;19.82;42.69;100990.50;5025342;28;20392;-72
2022/11/28 09:45:14;;;;;;;2.85;2.20;;;;;;;19.88;42.63;100990.59;5033143;28;20040;-72
2022/11/28 09:47:44;;;;;;;2.88;2.30;;;;;;;19.82;42.69;100982.56;5037852;28;20419;-73
2022/11/28 09:50:22;;;;;;;3.42;2.35;;;;;;;19.87;42.61;100994.25;5040693;28;20044;-72
2022/11/28 09:53:06;;;;;;;2.65;2.00;;;;;;;19.87;42.58;100991.59;5042872;28;20037;-72
2022/11/28 09:56:00;;;;;;;2.92;2.40;;;;;;;19.80;42.73;100998.59;5041928;28;20127;-72
2022/11/28 09:58:44;;;;;;;4.00;2.20;;;;;;;19.88;42.51;100987.97;5047537;28;20410;-72
2022/11/28 10:01:24;;;;;;;2.78;2.13;;;;;;;19.85;42.64;100998.91;5041382;28;21565;-72
2022/11/28 10:04:09;;;;;;;3.15;2.50;;;;;;;19.84;42.70;101002.53;5037479;28;20040;-72
2022/11/28 10:06:37;;;;;;;2.53;1.98;;;;;;;19.87;42.57;100999.53;5030806;28;20037;-72
2022/11/28 10:09:20;;;;;;;2.22;1.90;;;;;;;19.81;42.76;101002.06;5033607;28;20029;-72
2022/11/28 10:12:12;;;;;;;2.28;2.03;;;;;;;19.84;42.67;101001.72;5033722;28;20529;-72
2022/11/28 10:14:56;;;;;;;2.30;1.90;;;;;;;19.86;42.51;101010.28;5034937;28;20045;-72
2022/11/28 10:17:49;;;;;;;3.22;2.10;;;;;;;19.81;42.67;101004.72;5039627;28;20036;-73
2022/11/28 10:20:29;;;;;;;3.75;2.00;;;;;;;19.78;42.80;101005.06;5028666;28;20490;-72
2022/11/28 10:23:01;;;;;;;3.42;2.05;;;;;;;19.75;42.73;101003.59;5036252;28;20395;-72
2022/11/28 10:25:39;;;;;;;3.08;2.08;;;;;;;19.71;42.78;100996.19;5039045;28;20309;-72
2022/11/28 10:28:10;;;;;;;1.98;1.77;;;;;;;19.79;42.69;101001.44;5034522;28;20029;-72
2022/11/28 10:30:41;;;;;;;4.00;2.13;;;;;;;19.77;42.81;101008.72;5040511;28;20102;-72
2022/11/28 10:33:15;;;;;;;3.10;1.70;;;;;;;19.78;42.65;101003.25;5040192;28;20040;-72
2022/11/28 10:35:52;;;;;;;2.58;2.20;;;;;;;19.78;42.61;101008.53;5037438;28;20040;-72
2022/11/28 10:38:24;;;;;;;2.47;1.95;;;;;;;19.75;42.70;101003.59;5031161;28;20291;-72
2022/11/28 10:40:58;;;;;;;2.40;2.00;;;;;;;19.81;42.73;101005.53;5039834;28;20045;-72
2022/11/28 10:43:42;;;;;;;1.88;1.73;;;;;;;19.71;42.51;100996.19;5034977;28;20120;-72
2022/11/28 10:46:28;;;;;;;2.13;1.63;;;;;;;19.81;42.50;101013.47;5039460;28;20066;-72
2022/11/28 10:49:27;;;;;;;1.90;1.75;;;;;;;19.71;42.80;101004.09;5035827;28;20061;-72
2022/11/28 10:52:19;;;;;;;1.70;1.60;;;;;;;19.79;42.60;101017.28;5038575;28;20056;-72
2022/11/28 10:54:44;;;;;;;2.63;2.10;;;;;;;19.77;42.72;101011.34;5033976;28;20624;-72
2022/11/28 10:57:44;;;;;;;2.38;1.90;;;;;;;19.74;42.73;101022.25;5032165;28;20100;-72
2022/11/28 11:00:14;;;;;;;2.10;1.70;;;;;;;19.79;42.63;101020.75;5037409;28;20037;-69
2022/11/28 11:02:46;;;;;;;2.65;1.70;;;;;;;19.80;42.40;101019.75;5036721;28;20073;-72
2022/11/28 11:05:20;;;;;;;1.80;1.63;;;;;;;19.83;42.44;101022.03;5041109;28;20037;-71
2022/11/28 11:07:55;;;;;;;1.70;1.60;;;;;;;19.75;42.58;101019.47;5041412;28;20577;-72
2022/11/28 11:10:37;;;;;;;2.45;1.50;;;;;;;19.77;42.56;101024.56;5035414;28;20432;-72
2022/11/28 11:13:51;;;;;;;1.90;1.75;;;;;;;19.72;42.67;101022.41;5038375;28;20040;-72
2022/11/28 11:16:17;;;;;;;3.00;2.10;;;;;;;19.85;42.35;101016.56;5034901;28;20135;-72
2022/11/28 11:18:43;;;;;;;2.25;1.80;;;;;;;19.79;42.51;101023.38;5031712;28;20106;-72
2022/11/28 11:21:13;;;;;;;1.85;1.65;;;;;;;19.68;42.76;101018.50;5028785;28;21357;-72
2022/11/28 11:23:38;;;;;;;1.80;1.70;;;;;;;19.80;42.36;101008.34;5035545;28;20679;-72
2022/11/28 11:26:09;;;;;;;1.85;1.55;;;;;;;19.78;42.47;101007.72;5041574;28;20037;-71
2022/11/28 11:28:42;;;;;;;;;;;;;;;19.80;42.45;101006.53;5039564;28;20079;-72
2022/11/28 11:31:14;;;;;;;1.90;1.58;;;;;;;19.77;42.45;101008.72;5039557;28;19916;-72
2022/11/28 11:33:41;;;;;;;1.95;1.75;;;;;;;19.66;42.73;101003.81;5025622;28;20618;-72
2022/11/28 11:36:21;;;;;;;1.73;1.63;;;;;;;19.70;42.70;101007.75;5029811;28;20476;-72
2022/11/28 11:38:47;;;;;;;1.95;1.65;;;;;;;19.73;42.53;101004.75;5029366;28;20071;-72
2022/11/28 11:41:28;;;;;;;3.13;1.77;;;;;;;19.70;42.73;101013.03;5031349;28;20700;-72
2022/11/28 11:43:55;;;;;;;1.98;1.77;;;;;;;19.60;42.74;101014.09;5032743;28;20045;-73
2022/11/28 11:46:20;;;;;;;1.88;1.70;;;;;;;19.71;42.66;101017.31;5033598;28;20053;-72